Time;durP1;ratioP1;P1;durP2;ratioP2;P2;SDS_P1;SDS_P2;PMS_P1;PMS_P2;Temp;Humidity;BMP_temperature;BMP_pressure;BME280_temperature;BME280_humidity;BME280_pressure;Samples;Min_cycle;Max_cycle;Signal;HPM_P1;HPM_P2
2024/01/01 00:00:08;;;;;;;40.92;18.42;;;;;;;12.08;56.07;99765.72;4949588;28;123804;-74
2024/01/01 00:02:41;;;;;;;39.20;18.60;;;;;;;12.11;56.00;99764.66;4942771;28;124699;-73
2024/01/01 00:05:08;;;;;;;34.25;14.88;;;;;;;12.13;55.97;99762.75;4954138;28;109107;-73
2024/01/01 00:07:36;;;;;;;34.03;15.70;;;;;;;12.17;55.87;99769.56;4953028;28;112397;-73
2024/01/01 00:10:05;;;;;;;33.78;16.38;;;;;;;12.17;55.80;99769.56;4948236;28;124103;-73
2024/01/01 00:12:41;;;;;;;27.17;12.95;;;;;;;12.20;55.68;99764.00;4948442;28;122924;-73
2024/01/01 00:15:09;;;;;;;24.48;12.30;;;;;;;12.21;55.76;99768.38;4942950;28;109081;-74
2024/01/01 00:17:37;;;;;;;25.73;11.10;;;;;;;12.20;55.61;99769.31;4954449;28;111158;-73
2024/01/01 00:20:05;;;;;;;19.45;9.07;;;;;;;12.19;55.80;99764.97;4954139;28;123467;-73
2024/01/01 00:22:33;;;;;;;20.63;7.68;;;;;;;12.18;55.70;99771.22;4959681;28;123230;-74
2024/01/01 00:25:00;;;;;;;22.80;7.95;;;;;;;12.18;55.77;99770.38;4949915;28;109124;-73
2024/01/01 00:27:27;;;;;;;19.17;7.55;;;;;;;12.17;55.63;99772.19;4946540;28;108714;-74
2024/01/01 00:29:55;;;;;;;20.15;7.35;;;;;;;12.16;55.73;99775.81;4952910;28;123666;-74
2024/01/01 00:32:22;;;;;;;16.23;6.70;;;;;;;12.17;55.65;99772.19;4941100;28;123647;-73
2024/01/01 00:34:49;;;;;;;13.93;5.72;;;;;;;12.17;55.56;99777.50;4960835;28;109435;-73
2024/01/01 00:37:16;;;;;;;14.13;4.68;;;;;;;12.18;55.69;99781.84;4939646;28;109203;-72
2024/01/01 00:39:45;;;;;;;7.30;3.00;;;;;;;12.17;55.40;99796.09;4953060;28;122970;-73
2024/01/01 00:42:12;;;;;;;6.85;2.33;;;;;;;12.15;55.28;99789.16;4950437;28;124385;-73
2024/01/01 00:44:43;;;;;;;4.68;2.13;;;;;;;12.10;55.28;99789.50;4938851;28;109888;-74
2024/01/01 00:47:10;;;;;;;6.22;2.25;;;;;;;12.06;55.35;99798.63;4946439;28;110243;-74
2024/01/01 00:49:40;;;;;;;6.63;2.40;;;;;;;12.00;55.42;99788.44;4949048;28;124116;-73
2024/01/01 00:52:07;;;;;;;5.95;2.13;;;;;;;11.97;55.50;99809.88;4968307;28;123360;-74
2024/01/01 00:54:34;;;;;;;6.57;2.10;;;;;;;11.92;55.44;99780.97;4951700;28;109574;-74
2024/01/01 00:57:02;;;;;;;6.10;2.30;;;;;;;11.87;55.41;99794.53;4953973;28;107528;-73
2024/01/01 00:59:29;;;;;;;6.93;2.13;;;;;;;11.82;55.55;99796.63;4938485;28;123499;-73
2024/01/01 01:01:56;;;;;;;5.72;2.00;;;;;;;11.78;55.30;99792.50;4950118;28;124933;-73
2024/01/01 01:04:23;;;;;;;10.40;2.42;;;;;;;11.72;55.51;99795.56;4944716;28;109191;-73
2024/01/01 01:06:52;;;;;;;5.15;2.20;;;;;;;11.64;55.41;99797.84;4941758;28;109320;-73
2024/01/01 01:09:22;;;;;;;5.97;2.05;;;;;;;11.55;55.06;99798.50;4946560;28;123875;-75
2024/01/01 01:11:49;;;;;;;5.13;2.00;;;;;;;11.48;55.34;99806.81;4937360;28;123305;-74
2024/01/01 01:14:16;;;;;;;4.10;1.98;;;;;;;11.39;55.32;99799.47;4954084;28;109223;-75
2024/01/01 01:16:45;;;;;;;5.32;2.20;;;;;;;11.33;55.53;99810.47;4948256;28;109252;-75
2024/01/01 01:19:12;;;;;;;4.72;2.00;;;;;;;11.27;55.49;99810.88;4943737;28;123778;-77
2024/01/01 01:21:39;;;;;;;5.13;1.70;;;;;;;11.20;55.56;99804.28;4943375;28;124416;-75
2024/01/01 01:24:08;;;;;;;5.25;1.63;;;;;;;11.14;55.69;99788.78;4940967;28;108917;-75
2024/01/01 01:26:36;;;;;;;5.55;1.60;;;;;;;11.08;55.78;99800.63;4949923;28;108506;-76
2024/01/01 01:29:03;;;;;;;6.78;1.95;;;;;;;11.01;55.56;99809.91;4949156;28;123549;-75
2024/01/01 01:31:30;;;;;;;6.82;2.20;;;;;;;10.94;55.84;99804.13;4947620;28;124513;-76
2024/01/01 01:33:59;;;;;;;6.32;1.60;;;;;;;10.90;55.99;99807.94;4938981;28;110201;-75
2024/01/01 01:36:26;;;;;;;5.47;1.73;;;;;;;10.86;56.08;99817.88;4952925;28;109972;-75
2024/01/01 01:38:55;;;;;;;5.57;1.52;;;;;;;10.82;56.28;99820.81;4951358;28;123255;-75
2024/01/01 01:41:23;;;;;;;5.70;2.20;;;;;;;10.79;56.53;99815.69;4960299;28;123388;-74
2024/01/01 01:43:51;;;;;;;5.95;2.17;;;;;;;10.77;56.40;99812.28;4952950;28;109593;-75
2024/01/01 01:46:19;;;;;;;5.63;1.90;;;;;;;10.76;56.53;99829.16;4946773;28;109143;-74
2024/01/01 01:48:46;;;;;;;7.60;2.10;;;;;;;10.73;56.72;99826.69;4953220;28;123550;-75
2024/01/01 01:51:14;;;;;;;7.13;1.80;;;;;;;10.74;56.63;99828.38;4949350;28;123737;-75
2024/01/01 01:53:43;;;;;;;5.15;1.60;;;;;;;10.71;57.09;99830.25;4949606;28;109687;-75
2024/01/01 01:56:13;;;;;;;4.63;1.90;;;;;;;10.73;57.09;99831.97;4953365;28;108730;-75
2024/01/01 01:58:43;;;;;;;8.32;1.95;;;;;;;10.71;57.24;99824.97;4958994;28;123405;-74
2024/01/01 02:01:12;;;;;;;6.32;1.77;;;;;;;10.74;57.22;99833.66;4969704;28;123691;-75
2024/01/01 02:03:43;;;;;;;5.88;1.95;;;;;;;10.74;57.22;99823.06;4951891;28;109343;-76
2024/01/01 02:06:11;;;;;;;7.05;2.20;;;;;;;10.73;57.43;99822.22;4950363;28;108467;-75
2024/01/01 02:08:39;;;;;;;8.52;2.20;;;;;;;10.73;57.54;99822.22;4955082;28;123979;-75
2024/01/01 02:11:07;;;;;;;7.80;2.28;;;;;;;10.75;57.47;99825.63;4957700;28;123493;-75
2024/01/01 02:13:37;;;;;;;6.70;1.83;;;;;;;10.75;57.52;99819.50;4950860;28;109479;-75
2024/01/01 02:16:05;;;;;;;8.98;2.25;;;;;;;10.73;57.46;99816.94;4949552;28;109133;-75
2024/01/01 02:18:32;;;;;;;6.80;1.70;;;;;;;10.73;57.75;99818.72;4945657;28;123299;-75
2024/01/01 02:21:00;;;;;;;9.25;2.22;;;;;;;10.72;57.64;99825.84;4947867;28;124502;-76
2024/01/01 02:23:29;;;;;;;8.02;2.05;;;;;;;10.74;57.87;99828.38;4953247;28;109883;-75
2024/01/01 02:25:56;;;;;;;5.82;1.83;;;;;;;10.75;57.72;99830.94;4964671;28;109752;-75
2024/01/01 02:28:24;;;;;;;9.00;1.90;;;;;;;10.77;57.93;99830.84;4952257;28;123871;-75
2024/01/01 02:30:53;;;;;;;9.10;1.90;;;;;;;10.78;58.09;99830.75;4950342;28;124223;-75
2024/01/01 02:33:21;;;;;;;7.07;1.70;;;;;;;10.78;57.96;99836.03;4938082;28;107791;-75
2024/01/01 02:35:50;;;;;;;5.95;1.70;;;;;;;10.77;58.10;99834.31;4967500;28;108731;-75
2024/01/01 02:38:17;;;;;;;8.55;2.13;;;;;;;10.77;58.13;99844.91;4952095;28;124077;-75
2024/01/01 02:40:45;;;;;;;7.28;2.15;;;;;;;10.78;58.24;99843.16;4941332;28;123014;-74
2024/01/01 02:43:12;;;;;;;7.45;1.75;;;;;;;10.78;58.22;99845.78;4956922;28;109232;-76
2024/01/01 02:45:40;;;;;;;9.93;1.92;;;;;;;10.78;58.28;99837.84;4951916;28;108801;-74
2024/01/01 02:48:07;;;;;;;6.75;1.73;;;;;;;10.79;58.41;99844.81;4948022;28;123648;-74
2024/01/01 02:50:36;;;;;;;9.07;1.80;;;;;;;10.81;58.45;99842.94;4963312;28;121950;-74
2024/01/01 02:53:03;;;;;;;8.50;1.70;;;;;;;10.82;58.43;99837.53;4947756;28;109392;-74
2024/01/01 02:55:31;;;;;;;9.88;2.00;;;;;;;10.84;58.68;99842.75;4950285;28;108819;-74
2024/01/01 02:58:03;;;;;;;9.18;1.70;;;;;;;10.85;58.54;99841.78;4950716;28;123780;-74
2024/01/01 03:00:35;;;;;;;10.25;2.00;;;;;;;10.85;58.76;99837.38;4953784;28;123067;-74
2024/01/01 03:03:03;;;;;;;7.53;2.42;;;;;;;10.87;58.67;99834.63;4954437;28;109125;-74
2024/01/01 03:05:30;;;;;;;6.95;1.83;;;;;;;10.88;58.60;99842.44;4949404;28;109234;-74
2024/01/01 03:07:58;;;;;;;7.30;1.90;;;;;;;10.90;58.79;99834.41;4953267;28;124446;-74
2024/01/01 03:10:26;;;;;;;7.25;2.17;;;;;;;10.91;58.88;99844.91;4944241;28;123556;-74
2024/01/01 03:12:53;;;;;;;8.32;1.60;;;;;;;10.92;58.91;99859.00;4954946;28;110525;-74
2024/01/01 03:15:20;;;;;;;11.32;2.10;;;;;;;10.93;58.86;99858.06;4950683;28;110265;-74
2024/01/01 03:17:48;;;;;;;8.63;1.95;;;;;;;10.93;58.91;99844.84;4941258;28;124166;-74
2024/01/01 03:20:15;;;;;;;6.97;1.63;;;;;;;10.93;58.89;99839.53;4951456;28;124021;-74
2024/01/01 03:22:43;;;;;;;11.70;1.95;;;;;;;10.92;59.01;99843.13;4959361;28;108547;-74
2024/01/01 03:25:10;;;;;;;7.20;1.90;;;;;;;10.94;58.98;99846.53;4955883;28;109244;-74
2024/01/01 03:27:38;;;;;;;10.73;1.42;;;;;;;10.94;58.84;99851.81;4948096;28;123592;-75
2024/01/01 03:30:08;;;;;;;9.07;1.67;;;;;;;10.93;59.08;99839.53;4946759;28;123986;-74
2024/01/01 03:32:36;;;;;;;9.55;1.98;;;;;;;10.93;59.13;99850.13;4942355;28;109528;-74
2024/01/01 03:35:04;;;;;;;7.82;1.83;;;;;;;10.93;58.98;99850.13;4965740;28;108982;-74
2024/01/01 03:37:32;;;;;;;7.20;1.50;;;;;;;10.93;59.06;99860.72;4954310;28;124574;-73
2024/01/01 03:39:59;;;;;;;8.57;1.63;;;;;;;10.93;58.98;99860.72;4948112;28;125454;-73
2024/01/01 03:42:26;;;;;;;9.82;1.90;;;;;;;10.96;59.09;99864.97;4952435;28;108631;-73
2024/01/01 03:44:58;;;;;;;11.15;1.55;;;;;;;10.96;59.04;99854.38;4965637;28;108059;-74
2024/01/01 03:47:25;;;;;;;9.07;1.80;;;;;;;10.97;58.94;99851.63;4951122;28;123864;-74
2024/01/01 03:49:55;;;;;;;10.27;1.52;;;;;;;10.99;58.73;99849.75;4947428;28;123372;-73
2024/01/01 03:52:23;;;;;;;7.35;1.70;;;;;;;11.00;58.77;99851.44;4955611;28;109371;-74
2024/01/01 03:54:51;;;;;;;9.32;2.08;;;;;;;11.00;58.60;99845.28;4952717;28;108521;-74
2024/01/01 03:57:18;;;;;;;7.95;1.50;;;;;;;11.00;58.77;99850.59;4942033;28;124069;-74
2024/01/01 03:59:46;;;;;;;9.93;1.85;;;;;;;11.00;58.86;99851.44;4952034;28;124016;-74
2024/01/01 04:02:13;;;;;;;8.93;1.48;;;;;;;11.01;58.70;99852.28;4948015;28;111022;-74
2024/01/01 04:04:44;;;;;;;11.18;1.88;;;;;;;10.99;58.71;99855.03;4963414;28;109059;-74
2024/01/01 04:07:12;;;;;;;14.45;1.75;;;;;;;10.99;58.68;99860.34;4938487;28;124358;-75
2024/01/01 04:09:39;;;;;;;8.73;1.67;;;;;;;11.00;58.58;99859.41;4953783;28;122252;-74
2024/01/01 04:12:06;;;;;;;8.88;1.70;;;;;;;11.01;58.40;99862.91;4947453;28;109469;-74
2024/01/01 04:14:34;;;;;;;10.68;1.73;;;;;;;11.02;58.54;99853.97;4950734;28;108571;-74
2024/01/01 04:17:03;;;;;;;8.23;1.60;;;;;;;11.01;58.60;99858.44;4939549;28;124234;-74
2024/01/01 04:19:30;;;;;;;13.68;2.15;;;;;;;11.02;58.79;99849.56;4952269;28;123834;-74
2024/01/01 04:21:57;;;;;;;6.75;1.48;;;;;;;11.03;58.65;99861.84;4957771;28;109348;-74
2024/01/01 04:24:24;;;;;;;9.60;1.90;;;;;;;11.04;58.72;99852.97;4952883;28;109400;-74
2024/01/01 04:26:53;;;;;;;9.55;1.73;;;;;;;11.06;58.46;99855.50;4950049;28;124073;-74
2024/01/01 04:29:20;;;;;;;7.78;1.45;;;;;;;11.06;58.60;99861.66;4954721;28;123543;-74
2024/01/01 04:31:47;;;;;;;7.93;1.60;;;;;;;11.05;58.31;99859.94;4945906;28;109188;-74
2024/01/01 04:34:15;;;;;;;8.55;1.85;;;;;;;11.04;58.36;99852.97;4939842;28;108708;-74
2024/01/01 04:36:43;;;;;;;12.88;1.70;;;;;;;11.03;58.43;99867.13;4943569;28;123710;-74
2024/01/01 04:39:10;;;;;;;8.57;2.05;;;;;;;11.03;58.28;99861.84;4949403;28;123515;-74
2024/01/01 04:41:38;;;;;;;6.90;1.60;;;;;;;11.01;58.48;99861.09;4938144;28;109247;-74
2024/01/01 04:44:05;;;;;;;9.98;1.80;;;;;;;11.02;58.33;99859.28;4949514;28;109136;-74
2024/01/01 04:46:35;;;;;;;9.35;1.30;;;;;;;11.00;58.27;99864.69;4951912;28;124310;-75
2024/01/01 04:49:02;;;;;;;6.72;1.40;;;;;;;10.99;58.50;99855.03;4948420;28;124412;-73
2024/01/01 04:51:30;;;;;;;7.85;1.40;;;;;;;10.98;58.19;99858.66;4951054;28;110445;-74
2024/01/01 04:53:57;;;;;;;9.65;1.65;;;;;;;10.97;58.36;99851.63;4952498;28;110303;-74
2024/01/01 04:56:24;;;;;;;12.52;1.73;;;;;;;10.97;58.12;99867.53;4967429;28;124592;-74
2024/01/01 04:58:52;;;;;;;7.90;1.27;;;;;;;10.96;58.25;99865.81;4956144;28;123178;-74
2024/01/01 05:01:20;;;;;;;11.93;1.40;;;;;;;10.97;58.28;99862.22;4952210;28;109036;-74
2024/01/01 05:03:47;;;;;;;9.55;1.50;;;;;;;10.97;58.35;99861.38;4952642;28;109346;-75
2024/01/01 05:06:15;;;;;;;8.50;1.40;;;;;;;10.96;58.27;99852.56;4957639;22;123046;-75
2024/01/01 05:08:43;;;;;;;6.22;1.58;;;;;;;10.96;58.48;99860.50;4935749;28;123847;-75
2024/01/01 05:11:11;;;;;;;8.32;1.40;;;;;;;10.97;58.19;99872.84;4933065;28;109505;-77
2024/01/01 05:13:39;;;;;;;6.15;1.73;;;;;;;10.97;58.32;99872.84;4945654;28;108690;-75
2024/01/01 05:16:10;;;;;;;7.50;1.17;;;;;;;10.96;58.20;99865.81;4924597;28;123982;-75
2024/01/01 05:18:37;;;;;;;7.28;1.65;;;;;;;10.96;58.26;99871.13;4926432;28;124092;-75
2024/01/01 05:21:06;;;;;;;7.60;1.42;;;;;;;10.96;58.26;99891.47;4931664;28;109966;-75
2024/01/01 05:23:34;;;;;;;10.52;1.60;;;;;;;10.95;58.23;99880.03;4934202;28;108595;-75
2024/01/01 05:26:01;;;;;;;9.40;1.50;;;;;;;10.95;58.24;99880.03;4928623;28;124217;-75
2024/01/01 05:28:29;;;;;;;10.13;1.55;;;;;;;10.95;58.17;99890.63;4931727;28;124504;-75
2024/01/01 05:30:56;;;;;;;8.38;1.15;;;;;;;10.96;58.02;99880.88;4948116;28;108114;-75
2024/01/01 05:33:23;;;;;;;8.38;1.55;;;;;;;10.97;58.25;99886.06;4934588;28;108085;-76
2024/01/01 05:35:52;;;;;;;6.68;1.33;;;;;;;10.97;58.19;99899.31;4929188;28;123960;-76
2024/01/01 05:38:19;;;;;;;9.93;1.73;;;;;;;10.97;57.95;99894.03;4922666;28;124505;-76
2024/01/01 05:40:47;;;;;;;9.40;1.73;;;;;;;10.97;58.08;99898.47;4945191;28;110081;-76
2024/01/01 05:43:14;;;;;;;7.40;1.35;;;;;;;10.97;58.22;99904.63;4940355;28;110461;-75
2024/01/01 05:45:43;;;;;;;10.82;1.52;;;;;;;10.96;58.28;99908.19;4952804;28;123736;-76
2024/01/01 05:48:11;;;;;;;7.80;1.65;;;;;;;10.97;58.13;99904.63;4940786;28;123930;-75
2024/01/01 05:50:52;;;;;;;4.80;1.30;;;;;;;10.97;58.10;99909.91;4931758;28;109142;-76
2024/01/01 05:53:21;;;;;;;5.60;1.15;;;;;;;10.96;58.13;99910.84;4930413;28;108868;-76
2024/01/01 05:55:48;;;;;;;7.72;1.45;;;;;;;10.96;58.16;99920.59;4924602;28;124083;-76
2024/01/01 05:58:16;;;;;;;6.80;1.10;;;;;;;10.96;58.09;99918.81;4937058;28;123739;-76
2024/01/01 06:00:43;;;;;;;8.75;1.52;;;;;;;10.96;58.19;99913.50;4931169;28;109556;-75
2024/01/01 06:03:11;;;;;;;5.43;1.30;;;;;;;10.95;58.02;99933.00;4934933;28;109332;-75
2024/01/01 06:05:40;;;;;;;8.80;1.67;;;;;;;10.95;58.22;99933.00;4941084;28;123864;-75
2024/01/01 06:08:08;;;;;;;6.28;1.30;;;;;;;10.95;57.99;99938.31;4940052;28;125212;-75
2024/01/01 06:10:35;;;;;;;10.02;1.30;;;;;;;10.95;57.92;99922.41;4933947;28;109201;-76
2024/01/01 06:13:03;;;;;;;6.22;1.10;;;;;;;10.94;58.09;99920.69;4927853;28;108545;-75
2024/01/01 06:15:32;;;;;;;8.75;1.30;;;;;;;10.96;58.14;99950.59;4931099;28;125124;-76
2024/01/01 06:17:59;;;;;;;6.85;1.38;;;;;;;10.97;58.15;99940.88;4931537;28;123301;-75
2024/01/01 06:20:27;;;;;;;8.48;1.38;;;;;;;10.97;58.11;99957.63;4924248;28;109547;-74
2024/01/01 06:22:54;;;;;;;6.82;1.42;;;;;;;10.98;58.21;99955.81;4923174;28;108161;-74
2024/01/01 06:25:21;;;;;;;5.47;1.10;;;;;;;10.97;57.79;99957.63;4924542;28;124147;-75
2024/01/01 06:27:50;;;;;;;6.00;1.30;;;;;;;10.97;58.15;99962.91;4930617;28;123751;-75
2024/01/01 06:30:17;;;;;;;7.07;1.17;;;;;;;10.97;58.26;99954.13;4930987;28;110650;-74
2024/01/01 06:32:45;;;;;;;9.02;1.60;;;;;;;10.98;58.02;99964.63;4918871;28;109510;-75
2024/01/01 06:35:13;;;;;;;4.75;1.10;;;;;;;10.96;58.19;99979.75;4922298;28;123741;-74
2024/01/01 06:37:40;;;;;;;6.13;1.20;;;;;;;10.93;58.14;99993.19;4919255;28;123680;-72
2024/01/01 06:40:08;;;;;;;4.80;1.10;;;;;;;10.91;58.35;99995.09;4924966;28;109446;-73
2024/01/01 06:42:36;;;;;;;6.70;1.60;;;;;;;10.89;58.36;100002.28;4946149;28;109151;-72
2024/01/01 06:45:10;;;;;;;8.90;1.58;;;;;;;10.87;58.38;100009.47;4945362;28;123827;-72
2024/01/01 06:47:37;;;;;;;6.85;1.52;;;;;;;10.86;58.51;100002.44;4934667;28;124247;-72
2024/01/01 06:50:06;;;;;;;7.50;1.38;;;;;;;10.86;58.57;100018.34;4933543;28;109334;-73
2024/01/01 06:52:33;;;;;;;10.27;1.95;;;;;;;10.86;58.40;100013.03;4931652;28;107966;-73
2024/01/01 06:55:02;;;;;;;7.88;1.73;;;;;;;10.85;58.50;100016.63;4935209;28;124386;-72
2024/01/01 06:57:29;;;;;;;7.20;1.45;;;;;;;10.86;58.45;100018.34;4941918;28;123889;-73
2024/01/01 06:59:56;;;;;;;5.40;1.50;;;;;;;10.84;58.89;100015.78;4937141;28;109610;-74
2024/01/01 07:02:25;;;;;;;8.55;1.98;;;;;;;10.83;58.56;100019.38;4932168;28;108808;-74
2024/01/01 07:04:52;;;;;;;9.50;1.55;;;;;;;10.82;58.50;100022.13;4939039;28;124063;-73
2024/01/01 07:07:19;;;;;;;7.95;1.40;;;;;;;10.82;58.82;100022.13;4928903;28;123727;-73
2024/01/01 07:09:48;;;;;;;9.13;1.30;;;;;;;10.82;58.52;100038.00;4915350;28;108511;-73
2024/01/01 07:12:21;;;;;;;8.38;1.50;;;;;;;10.80;58.50;100034.59;4927404;28;108821;-74
2024/01/01 07:14:49;;;;;;;7.07;1.23;;;;;;;10.78;58.65;100042.63;4930851;28;123997;-74
2024/01/01 07:17:16;;;;;;;7.07;1.20;;;;;;;10.77;58.61;100051.50;4938040;28;124352;-73
2024/01/01 07:19:44;;;;;;;7.70;1.67;;;;;;;10.77;58.56;100061.25;4935506;28;110535;-73
2024/01/01 07:22:12;;;;;;;12.57;1.95;;;;;;;10.78;59.02;100065.63;4937584;28;109773;-74
2024/01/01 07:24:41;;;;;;;9.75;1.40;;;;;;;10.76;58.84;100054.28;4930062;28;124497;-74
2024/01/01 07:27:08;;;;;;;5.63;1.10;;;;;;;10.75;59.03;100057.84;4929139;28;124250;-73
2024/01/01 07:29:36;;;;;;;4.90;1.20;;;;;;;10.73;58.77;100070.31;4924926;28;108637;-73
2024/01/01 07:32:04;;;;;;;4.78;1.15;;;;;;;10.71;58.72;100063.31;4952406;28;108726;-73
2024/01/01 07:34:31;;;;;;;9.65;1.33;;;;;;;10.70;58.82;100072.22;4935494;28;123979;-72
2024/01/01 07:37:00;;;;;;;7.72;1.60;;;;;;;10.68;58.96;100068.81;4934185;28;123829;-73
2024/01/01 07:39:30;;;;;;;5.18;0.95;;;;;;;10.67;58.76;100082.97;4930374;28;108794;-73
2024/01/01 07:41:58;;;;;;;5.38;1.38;;;;;;;10.66;59.15;100076.00;4918351;28;108983;-73
2024/01/01 07:44:26;;;;;;;9.20;1.17;;;;;;;10.65;58.95;100087.50;4920450;28;123259;-73
2024/01/01 07:46:58;;;;;;;6.07;1.25;;;;;;;10.65;58.99;100084.88;4942564;28;123706;-75
2024/01/01 07:49:25;;;;;;;7.32;1.15;;;;;;;10.65;58.97;100084.88;4928569;28;108104;-73
2024/01/01 07:51:53;;;;;;;4.82;0.98;;;;;;;10.65;58.99;100087.50;4934080;28;111012;-73
2024/01/01 07:54:20;;;;;;;6.07;1.38;;;;;;;10.64;58.95;100088.47;4932189;28;124309;-72
2024/01/01 07:56:49;;;;;;;2.60;0.73;;;;;;;10.63;59.09;100097.34;4931898;28;123669;-73
2024/01/01 07:59:16;;;;;;;6.55;1.25;;;;;;;10.62;58.92;100111.50;4927774;28;109243;-73
2024/01/01 08:01:43;;;;;;;6.63;1.20;;;;;;;10.62;59.03;100108.84;4933047;28;109448;-73
2024/01/01 08:04:12;;;;;;;5.80;1.20;;;;;;;10.62;58.98;100111.50;4943248;28;123820;-73
2024/01/01 08:06:40;;;;;;;5.38;1.08;;;;;;;10.62;58.78;100111.50;4938348;28;123148;-74
2024/01/01 08:09:07;;;;;;;9.75;1.08;;;;;;;10.62;59.13;100105.38;4933353;28;110137;-74
2024/01/01 08:11:36;;;;;;;5.57;1.10;;;;;;;10.62;59.04;100116.81;4936088;28;109461;-74
2024/01/01 08:14:03;;;;;;;7.28;0.95;;;;;;;10.64;59.01;100114.06;4934721;28;123302;-74
2024/01/01 08:16:34;;;;;;;6.50;1.35;;;;;;;10.65;59.06;100116.63;4932000;28;124047;-73
2024/01/01 08:19:01;;;;;;;4.22;1.10;;;;;;;10.67;58.96;100125.34;4927711;28;109238;-74
2024/01/01 08:21:31;;;;;;;7.88;1.25;;;;;;;10.68;59.14;100129.72;4932004;28;108705;-73
2024/01/01 08:23:58;;;;;;;3.00;1.30;;;;;;;10.70;58.99;100135.78;4934045;28;124003;-74
2024/01/01 08:26:26;;;;;;;3.40;0.98;;;;;;;10.71;58.96;100137.47;4930301;28;124325;-74
2024/01/01 08:28:53;;;;;;;4.78;0.88;;;;;;;10.73;58.90;100139.19;4933207;28;109041;-73
2024/01/01 08:31:22;;;;;;;7.22;1.10;;;;;;;10.74;58.83;100140.88;4935143;28;109286;-73
2024/01/01 08:33:49;;;;;;;4.88;1.13;;;;;;;10.76;58.98;100154.91;4929225;28;123386;-73
2024/01/01 08:36:19;;;;;;;5.30;1.40;;;;;;;10.77;59.01;100156.59;4920329;28;123721;-73
2024/01/01 08:38:47;;;;;;;4.63;0.98;;;;;;;10.78;58.97;100159.19;4931846;28;109575;-74
2024/01/01 08:41:15;;;;;;;5.97;1.20;;;;;;;10.80;59.01;100172.34;4932705;28;109307;-73
2024/01/01 08:43:46;;;;;;;6.88;1.13;;;;;;;10.82;58.99;100175.75;4931327;28;123475;-75
2024/01/01 08:46:15;;;;;;;7.88;1.48;;;;;;;10.84;59.20;100168.56;4935296;28;123739;-73
2024/01/01 08:48:42;;;;;;;6.13;1.20;;;;;;;10.86;59.17;100172.81;4928448;28;109275;-73
2024/01/01 08:51:10;;;;;;;5.53;1.20;;;;;;;10.88;59.32;100175.41;4935842;28;108520;-73
2024/01/01 08:53:37;;;;;;;3.92;1.05;;;;;;;10.91;59.15;100175.22;4931068;28;123973;-73
2024/01/01 08:56:04;;;;;;;5.82;1.30;;;;;;;10.92;58.90;100192.81;4934591;28;124451;-74
2024/01/01 08:58:32;;;;;;;7.88;1.30;;;;;;;10.92;59.21;100182.22;4929190;28;110503;-74
2024/01/01 09:01:00;;;;;;;5.47;1.40;;;;;;;10.93;59.17;100178.66;4932876;28;110272;-73
2024/01/01 09:03:29;;;;;;;4.60;1.30;;;;;;;10.95;59.11;100182.06;4938807;28;123934;-74
2024/01/01 09:05:58;;;;;;;10.13;1.40;;;;;;;10.98;59.24;100191.63;4940852;28;123025;-74
2024/01/01 09:08:30;;;;;;;6.40;1.08;;;;;;;10.99;59.24;100188.88;4941444;28;109596;-74
2024/01/01 09:10:58;;;;;;;5.00;1.20;;;;;;;11.02;59.35;100194.03;4928045;28;108887;-74
2024/01/01 09:13:25;;;;;;;8.70;1.30;;;;;;;11.05;59.21;100193.81;4930623;28;123974;-74
2024/01/01 09:15:52;;;;;;;5.45;1.40;;;;;;;11.09;59.25;100200.69;4933351;28;123384;-73
2024/01/01 09:18:20;;;;;;;4.53;1.27;;;;;;;11.10;59.27;100202.38;4939752;28;108116;-73
2024/01/01 09:20:48;;;;;;;9.23;1.38;;;;;;;11.13;59.28;100205.78;4936176;28;109107;-74
2024/01/01 09:23:15;;;;;;;4.07;1.13;;;;;;;11.16;59.26;100210.91;4933216;28;124786;-74
2024/01/01 09:25:43;;;;;;;7.93;1.27;;;;;;;11.19;59.27;100211.59;4941885;28;123794;-74
2024/01/01 09:28:12;;;;;;;6.68;1.10;;;;;;;11.22;59.24;100215.84;4935482;28;109135;-74
2024/01/01 09:30:40;;;;;;;6.50;1.08;;;;;;;11.27;59.16;100208.50;4940979;28;109513;-73
2024/01/01 09:33:08;;;;;;;5.38;1.20;;;;;;;11.29;59.22;100233.13;4923869;28;122942;-73
2024/01/01 09:35:35;;;;;;;6.32;1.30;;;;;;;11.29;59.18;100233.97;4938881;28;123253;-74
2024/01/01 09:38:03;;;;;;;5.70;1.15;;;;;;;11.28;59.22;100236.69;4932459;28;109024;-73
2024/01/01 09:40:31;;;;;;;3.05;1.10;;;;;;;11.28;59.11;100247.31;4929680;28;108930;-73
2024/01/01 09:42:59;;;;;;;7.07;1.10;;;;;;;11.30;59.44;100245.41;4932475;28;123333;-74
2024/01/01 09:45:27;;;;;;;4.72;1.25;;;;;;;11.29;59.29;100249.88;4942534;28;124251;-74
2024/01/01 09:47:55;;;;;;;4.18;1.05;;;;;;;11.31;59.17;100252.44;4955681;28;109789;-73
2024/01/01 09:50:22;;;;;;;7.95;1.20;;;;;;;11.32;59.17;100262.13;4936285;28;109620;-73
2024/01/01 09:53:00;;;;;;;6.65;1.13;;;;;;;11.33;59.32;100261.16;4939176;28;123287;-73
2024/01/01 09:55:28;;;;;;;4.13;1.25;;;;;;;11.34;59.30;100254.94;4929626;28;123852;-73
2024/01/01 09:57:55;;;;;;;4.50;1.05;;;;;;;11.36;59.42;100250.38;4936867;28;108340;-73
2024/01/01 10:00:23;;;;;;;3.72;1.00;;;;;;;11.37;59.26;100257.38;4935477;28;108688;-73
2024/01/01 10:02:51;;;;;;;4.38;1.02;;;;;;;11.39;59.33;100259.94;4922286;28;124733;-73
2024/01/01 10:05:18;;;;;;;2.72;0.95;;;;;;;11.38;59.31;100269.72;4952793;28;124156;-73
2024/01/01 10:07:47;;;;;;;2.15;0.95;;;;;;;11.37;59.07;100267.97;4931774;28;108642;-73
2024/01/01 10:10:42;;;;;;;4.15;1.08;;;;;;;11.35;59.07;100285.78;4934631;28;108271;-73
2024/01/01 10:13:14;;;;;;;3.78;0.77;;;;;;;11.37;59.13;100281.25;4929543;28;123806;-73
2024/01/01 10:15:42;;;;;;;2.67;0.77;;;;;;;11.39;59.14;100274.06;4933721;28;123976;-73
2024/01/01 10:18:12;;;;;;;5.90;1.23;;;;;;;11.42;59.10;100276.53;4947755;28;108146;-73
2024/01/01 10:20:42;;;;;;;5.63;0.95;;;;;;;11.46;59.20;100280.72;4935420;28;109582;-73
2024/01/01 10:23:19;;;;;;;3.72;0.98;;;;;;;11.52;59.30;100286.63;4936569;28;124825;-73
2024/01/01 10:25:49;;;;;;;5.18;1.38;;;;;;;11.56;59.18;100288.97;4934438;28;123298;-74
2024/01/01 10:28:17;;;;;;;2.30;1.00;;;;;;;11.61;59.32;100291.38;4946139;28;108188;-73
2024/01/01 10:30:48;;;;;;;4.90;1.52;;;;;;;11.64;59.47;100296.50;4935001;28;108919;-73
2024/01/01 10:33:17;;;;;;;7.55;1.23;;;;;;;11.68;59.23;100290.09;4929644;28;124566;-73
2024/01/01 10:35:45;;;;;;;3.35;1.05;;;;;;;11.73;59.14;100295.13;4934063;28;123036;-72
2024/01/01 10:38:13;;;;;;;7.72;1.33;;;;;;;11.77;59.38;100301.94;4933891;28;109947;-71
2024/01/01 10:40:41;;;;;;;4.30;1.35;;;;;;;11.81;59.22;100306.13;4954242;28;109648;-72
2024/01/01 10:43:10;;;;;;;5.72;1.30;;;;;;;11.85;59.38;100294.41;4945307;28;124110;-72
2024/01/01 10:45:38;;;;;;;5.82;1.15;;;;;;;11.86;59.31;100302.25;4933148;28;123391;-73
2024/01/01 10:48:12;;;;;;;2.60;1.08;;;;;;;11.88;59.19;100311.00;4930719;28;109314;-73
2024/01/01 10:50:50;;;;;;;5.93;1.30;;;;;;;11.90;59.11;100334.81;4934804;28;109119;-73
2024/01/01 10:53:47;;;;;;;7.68;1.27;;;;;;;11.88;59.07;100332.22;4933001;28;124114;-73
2024/01/01 10:56:28;;;;;;;3.00;1.15;;;;;;;11.86;58.91;100328.78;4958534;22;123915;-82
2024/01/01 10:59:07;;;;;;;4.35;1.27;;;;;;;11.82;59.04;100327.25;4951375;28;110101;-82
2024/01/01 11:01:37;;;;;;;7.68;1.50;;;;;;;11.81;59.10;100330.00;4953897;28;108732;-81
2024/01/01 11:04:05;;;;;;;5.20;1.27;;;;;;;11.78;58.97;100331.03;4955064;28;125595;-82
2024/01/01 11:06:33;;;;;;;6.07;1.30;;;;;;;11.75;59.02;100325.91;4941920;28;124617;-82
2024/01/01 11:09:19;;;;;;;3.47;1.27;;;;;;;11.72;59.07;100331.41;4954058;28;110910;-82
2024/01/01 11:11:50;;;;;;;5.20;1.55;;;;;;;11.69;59.10;100326.28;4971167;28;110154;-82
2024/01/01 11:14:29;;;;;;;5.75;1.50;;;;;;;11.67;59.22;100323.69;4968978;28;124385;-83
2024/01/01 11:17:06;;;;;;;5.82;1.50;;;;;;;11.67;59.22;100323.69;4943510;28;126633;-83
2024/01/01 11:19:46;;;;;;;7.22;1.55;;;;;;;11.68;59.29;100319.28;4968972;28;109978;-83
2024/01/01 11:22:20;;;;;;;7.70;1.63;;;;;;;11.68;59.28;100324.56;4960667;28;110043;-83
2024/01/01 11:24:48;;;;;;;6.70;1.60;;;;;;;11.69;59.37;100336.88;4969090;28;126311;-82
2024/01/01 11:27:31;;;;;;;7.20;1.90;;;;;;;11.72;59.47;100331.41;4955992;28;125132;-84